sensor_id;sensor_type;location;lat;lon;timestamp;pressure;altitude;pressure_sealevel;temperature;humidity
32237;BME280;18726;44.732;10.550;2022-09-20T00:00:35;101049.75;;;14.68;100.00
32237;BME280;18726;44.732;10.550;2022-09-20T00:03:44;101043.78;;;14.62;100.00
32237;BME280;18726;44.732;10.550;2022-09-20T00:06:48;101047.72;;;14.65;95.91
32237;BME280;18726;44.732;10.550;2022-09-20T00:09:51;101046.53;;;14.62;100.00
32237;BME280;18726;44.732;10.550;2022-09-20T00:12:56;101049.00;;;14.29;100.00
32237;BME280;18726;44.732;10.550;2022-09-20T00:16:04;101047.28;;;14.20;100.00
32237;BME280;18726;44.732;10.550;2022-09-20T00:19:19;101045.59;;;14.12;100.00
32237;BME280;18726;44.732;10.550;2022-09-20T00:22:23;101042.13;;;13.96;100.00
32237;BME280;18726;44.732;10.550;2022-09-20T00:25:26;101042.84;;;13.93;100.00
32237;BME280;18726;44.732;10.550;2022-09-20T00:28:31;101038.03;;;13.86;100.00
32237;BME280;18726;44.732;10.550;2022-09-20T00:31:36;101050.75;;;13.98;100.00
32237;BME280;18726;44.732;10.550;2022-09-20T00:34:42;101040.56;;;13.95;100.00
32237;BME280;18726;44.732;10.550;2022-09-20T00:38:04;101044.88;;;13.96;100.00
32237;BME280;18726;44.732;10.550;2022-09-20T00:41:08;101050.03;;;14.01;100.00
32237;BME280;18726;44.732;10.550;2022-09-20T00:47:47;101061.63;;;13.95;100.00
32237;BME280;18726;44.732;10.550;2022-09-20T00:50:58;101058.25;;;13.82;100.00
32237;BME280;18726;44.732;10.550;2022-09-20T00:54:06;101050.19;;;13.70;100.00
32237;BME280;18726;44.732;10.550;2022-09-20T00:57:11;101052.91;;;13.70;100.00
32237;BME280;18726;44.732;10.550;2022-09-20T01:00:15;101056.50;;;13.74;100.00
32237;BME280;18726;44.732;10.550;2022-09-20T01:03:21;101056.50;;;13.74;100.00
32237;BME280;18726;44.732;10.550;2022-09-20T01:06:25;101052.91;;;13.70;100.00
32237;BME280;18726;44.732;10.550;2022-09-20T01:09:29;101056.34;;;13.67;100.00
32237;BME280;18726;44.732;10.550;2022-09-20T01:12:33;101063.13;;;13.73;100.00
32237;BME280;18726;44.732;10.550;2022-09-20T01:15:39;101062.09;;;13.62;100.00
32237;BME280;18726;44.732;10.550;2022-09-20T01:18:43;101051.75;;;13.51;100.00
32237;BME280;18726;44.732;10.550;2022-09-20T01:21:49;101056.00;;;13.49;100.00
32237;BME280;18726;44.732;10.550;2022-09-20T01:25:06;101066.97;;;13.52;100.00
32237;BME280;18726;44.732;10.550;2022-09-20T01:28:11;101060.22;;;13.46;100.00
32237;BME280;18726;44.732;10.550;2022-09-20T01:31:33;101062.06;;;13.42;100.00
32237;BME280;18726;44.732;10.550;2022-09-20T01:34:45;101064.91;;;13.30;100.00
32237;BME280;18726;44.732;10.550;2022-09-20T01:51:36;101079.69;;;13.29;100.00
32237;BME280;18726;44.732;10.550;2022-09-20T01:58:41;101064.38;;;13.09;100.00
32237;BME280;18726;44.732;10.550;2022-09-20T02:13:00;101086.28;;;13.12;100.00
32237;BME280;18726;44.732;10.550;2022-09-20T02:22:40;101098.50;;;13.03;100.00
32237;BME280;18726;44.732;10.550;2022-09-20T02:28:55;101110.50;;;12.98;100.00
32237;BME280;18726;44.732;10.550;2022-09-20T02:32:32;101109.28;;;12.96;100.00
32237;BME280;18726;44.732;10.550;2022-09-20T02:35:54;101104.16;;;12.94;100.00
32237;BME280;18726;44.732;10.550;2022-09-20T02:39:16;101106.06;;;12.62;100.00
32237;BME280;18726;44.732;10.550;2022-09-20T02:53:06;101113.41;;;11.90;100.00
32237;BME280;18726;44.732;10.550;2022-09-20T02:56:30;101110.69;;;11.90;100.00
32237;BME280;18726;44.732;10.550;2022-09-20T02:59:40;101112.72;;;11.93;100.00
32237;BME280;18726;44.732;10.550;2022-09-20T03:26:19;101113.00;;;11.52;100.00
32237;BME280;18726;44.732;10.550;2022-09-20T03:36:24;101122.75;;;11.77;100.00
32237;BME280;18726;44.732;10.550;2022-09-20T03:42:59;101121.44;;;11.99;100.00
32237;BME280;18726;44.732;10.550;2022-09-20T03:46:18;101128.22;;;12.05;100.00
32237;BME280;18726;44.732;10.550;2022-09-20T03:52:52;101118.13;;;12.05;100.00
32237;BME280;18726;44.732;10.550;2022-09-20T04:09:22;101107.88;;;11.62;100.00
32237;BME280;18726;44.732;10.550;2022-09-20T04:13:01;101112.53;;;11.62;100.00
32237;BME280;18726;44.732;10.550;2022-09-20T04:20:12;101119.88;;;11.73;100.00
32237;BME280;18726;44.732;10.550;2022-09-20T04:26:48;101121.78;;;11.85;100.00
32237;BME280;18726;44.732;10.550;2022-09-20T04:30:01;101122.69;;;11.89;100.00
32237;BME280;18726;44.732;10.550;2022-09-20T04:33:27;101130.91;;;11.77;100.00
32237;BME280;18726;44.732;10.550;2022-09-20T04:36:45;101128.16;;;11.65;100.00
32237;BME280;18726;44.732;10.550;2022-09-20T05:01:03;101140.97;;;11.64;100.00
32237;BME280;18726;44.732;10.550;2022-09-20T05:07:23;101141.19;;;11.96;100.00
32237;BME280;18726;44.732;10.550;2022-09-20T05:30:54;101169.88;;;14.22;100.00
32237;BME280;18726;44.732;10.550;2022-09-20T05:35:05;101181.69;;;14.84;100.00
32237;BME280;18726;44.732;10.550;2022-09-20T05:38:12;101181.06;;;16.49;100.00
32237;BME280;18726;44.732;10.550;2022-09-20T05:48:23;101201.69;;;20.89;77.71
32237;BME280;18726;44.732;10.550;2022-09-20T05:54:46;101217.84;;;23.20;65.01
32237;BME280;18726;44.732;10.550;2022-09-20T05:58:17;101211.72;;;24.42;58.54
32237;BME280;18726;44.732;10.550;2022-09-20T06:01:30;101218.50;;;25.45;53.71
32237;BME280;18726;44.732;10.550;2022-09-20T06:15:31;101229.34;;;29.22;41.33
32237;BME280;18726;44.732;10.550;2022-09-20T06:22:15;101243.56;;;30.74;39.89
32237;BME280;18726;44.732;10.550;2022-09-20T06:25:28;101245.63;;;31.64;38.29
32237;BME280;18726;44.732;10.550;2022-09-20T06:28:39;101251.19;;;32.11;36.24
32237;BME280;18726;44.732;10.550;2022-09-20T06:31:44;101248.44;;;31.40;38.09
32237;BME280;18726;44.732;10.550;2022-09-20T06:34:48;101255.72;;;32.62;35.85
32237;BME280;18726;44.732;10.550;2022-09-20T06:41:31;101257.09;;;32.81;34.22
32237;BME280;18726;44.732;10.550;2022-09-20T06:44:41;101249.41;;;33.32;33.82
32237;BME280;18726;44.732;10.550;2022-09-20T06:47:45;101247.28;;;30.80;37.39
32237;BME280;18726;44.732;10.550;2022-09-20T06:50:48;101253.63;;;30.30;39.51
32237;BME280;18726;44.732;10.550;2022-09-20T06:53:55;101256.97;;;32.61;34.96
32237;BME280;18726;44.732;10.550;2022-09-20T06:57:02;101254.50;;;33.13;33.60
32237;BME280;18726;44.732;10.550;2022-09-20T07:00:07;101262.78;;;32.72;34.35
32237;BME280;18726;44.732;10.550;2022-09-20T07:03:13;101256.56;;;33.47;34.80
32237;BME280;18726;44.732;10.550;2022-09-20T07:06:17;101260.81;;;34.50;33.94
32237;BME280;18726;44.732;10.550;2022-09-20T07:09:22;101261.81;;;35.10;31.25
32237;BME280;18726;44.732;10.550;2022-09-20T07:12:27;101261.78;;;33.95;32.53
32237;BME280;18726;44.732;10.550;2022-09-20T07:15:32;101266.25;;;35.65;31.28
32237;BME280;18726;44.732;10.550;2022-09-20T07:18:36;101253.50;;;34.38;32.32
32237;BME280;18726;44.732;10.550;2022-09-20T07:21:39;101258.44;;;34.74;32.42
32237;BME280;18726;44.732;10.550;2022-09-20T07:24:43;101261.81;;;34.47;32.57
32237;BME280;18726;44.732;10.550;2022-09-20T07:27:49;101259.72;;;33.20;33.45
32237;BME280;18726;44.732;10.550;2022-09-20T07:30:53;101261.19;;;34.95;31.89
32237;BME280;18726;44.732;10.550;2022-09-20T07:33:57;101275.69;;;36.04;31.58
32237;BME280;18726;44.732;10.550;2022-09-20T07:37:01;101271.91;;;34.85;32.98
32237;BME280;18726;44.732;10.550;2022-09-20T07:40:04;101274.47;;;34.57;33.06
32237;BME280;18726;44.732;10.550;2022-09-20T07:43:09;101269.97;;;35.39;32.57
32237;BME280;18726;44.732;10.550;2022-09-20T07:46:12;101274.47;;;35.63;32.37
32237;BME280;18726;44.732;10.550;2022-09-20T07:49:16;101285.00;;;35.25;32.93
32237;BME280;18726;44.732;10.550;2022-09-20T07:52:19;101291.09;;;37.65;30.02
32237;BME280;18726;44.732;10.550;2022-09-20T07:55:23;101289.84;;;36.15;31.79
32237;BME280;18726;44.732;10.550;2022-09-20T07:58:28;101288.44;;;39.02;28.80
32237;BME280;18726;44.732;10.550;2022-09-20T08:01:32;101290.66;;;38.49;29.54
32237;BME280;18726;44.732;10.550;2022-09-20T08:04:35;101285.81;;;38.79;27.49
32237;BME280;18726;44.732;10.550;2022-09-20T08:07:39;101292.28;;;36.90;29.62
32237;BME280;18726;44.732;10.550;2022-09-20T08:10:46;101287.06;;;35.19;33.09
32237;BME280;18726;44.732;10.550;2022-09-20T08:13:53;101294.94;;;35.46;33.21
32237;BME280;18726;44.732;10.550;2022-09-20T08:16:57;101292.06;;;35.04;33.71
32237;BME280;18726;44.732;10.550;2022-09-20T08:20:01;101303.81;;;38.58;29.73
32237;BME280;18726;44.732;10.550;2022-09-20T08:23:05;101310.84;;;40.72;27.61
32237;BME280;18726;44.732;10.550;2022-09-20T08:26:10;101306.50;;;42.17;25.89
32237;BME280;18726;44.732;10.550;2022-09-20T08:29:15;101304.09;;;40.75;26.24
32237;BME280;18726;44.732;10.550;2022-09-20T08:32:18;101298.38;;;38.54;28.14
32237;BME280;18726;44.732;10.550;2022-09-20T08:35:21;101302.31;;;38.45;28.29
32237;BME280;18726;44.732;10.550;2022-09-20T08:38:27;101293.56;;;36.94;29.66
32237;BME280;18726;44.732;10.550;2022-09-20T08:41:35;101299.13;;;37.67;29.54
32237;BME280;18726;44.732;10.550;2022-09-20T08:44:54;101294.06;;;38.01;30.10
32237;BME280;18726;44.732;10.550;2022-09-20T08:48:01;101296.78;;;40.10;27.11
32237;BME280;18726;44.732;10.550;2022-09-20T08:51:13;101288.19;;;39.00;29.13
32237;BME280;18726;44.732;10.550;2022-09-20T08:54:19;101286.72;;;39.47;28.58
32237;BME280;18726;44.732;10.550;2022-09-20T08:57:26;101292.16;;;39.21;27.26
32237;BME280;18726;44.732;10.550;2022-09-20T09:00:33;101287.88;;;40.84;27.61
32237;BME280;18726;44.732;10.550;2022-09-20T09:03:36;101291.22;;;39.80;27.19
32237;BME280;18726;44.732;10.550;2022-09-20T09:06:42;101286.59;;;37.12;29.82
32237;BME280;18726;44.732;10.550;2022-09-20T09:09:47;101283.19;;;38.81;29.03
32237;BME280;18726;44.732;10.550;2022-09-20T09:12:52;101282.13;;;36.16;31.17
32237;BME280;18726;44.732;10.550;2022-09-20T09:16:05;101277.09;;;36.93;31.82
32237;BME280;18726;44.732;10.550;2022-09-20T09:19:32;101267.78;;;36.36;34.08
32237;BME280;18726;44.732;10.550;2022-09-20T09:22:45;101269.34;;;36.99;33.08
32237;BME280;18726;44.732;10.550;2022-09-20T09:25:51;101272.94;;;37.05;31.75
32237;BME280;18726;44.732;10.550;2022-09-20T09:29:20;101265.50;;;35.70;33.79
32237;BME280;18726;44.732;10.550;2022-09-20T09:32:28;101252.69;;;32.21;38.16
32237;BME280;18726;44.732;10.550;2022-09-20T09:35:34;101244.34;;;30.66;40.05
32237;BME280;18726;44.732;10.550;2022-09-20T09:38:40;101249.38;;;29.61;40.84
32237;BME280;18726;44.732;10.550;2022-09-20T09:41:44;101254.81;;;30.47;40.15
32237;BME280;18726;44.732;10.550;2022-09-20T09:44:48;101254.66;;;28.13;42.94
32237;BME280;18726;44.732;10.550;2022-09-20T09:47:53;101253.56;;;27.76;45.56
32237;BME280;18726;44.732;10.550;2022-09-20T09:51:18;101248.34;;;26.77;49.02
32237;BME280;18726;44.732;10.550;2022-09-20T09:54:24;101253.94;;;27.53;47.75
32237;BME280;18726;44.732;10.550;2022-09-20T09:58:10;101240.06;;;29.15;44.02
32237;BME280;18726;44.732;10.550;2022-09-20T10:01:36;101239.22;;;29.45;44.57
32237;BME280;18726;44.732;10.550;2022-09-20T10:04:59;101235.47;;;28.68;43.96
32237;BME280;18726;44.732;10.550;2022-09-20T10:15:05;101216.75;;;27.43;50.87
32237;BME280;18726;44.732;10.550;2022-09-20T10:18:33;101215.88;;;27.46;49.03
32237;BME280;18726;44.732;10.550;2022-09-20T10:38:16;101204.69;;;27.46;49.60
32237;BME280;18726;44.732;10.550;2022-09-20T10:45:18;101201.53;;;27.10;50.58
32237;BME280;18726;44.732;10.550;2022-09-20T10:48:45;101193.94;;;26.72;52.01
32237;BME280;18726;44.732;10.550;2022-09-20T10:52:49;101187.03;;;26.22;54.76
32237;BME280;18726;44.732;10.550;2022-09-20T10:59:18;101183.00;;;26.65;56.10
32237;BME280;18726;44.732;10.550;2022-09-20T11:02:43;101176.34;;;27.61;55.38
32237;BME280;18726;44.732;10.550;2022-09-20T11:09:23;101171.41;;;25.83;54.33
32237;BME280;18726;44.732;10.550;2022-09-20T11:13:32;101175.69;;;25.10;58.38
32237;BME280;18726;44.732;10.550;2022-09-20T11:20:03;101166.28;;;25.37;60.57
32237;BME280;18726;44.732;10.550;2022-09-20T11:23:17;101158.75;;;24.85;63.45
32237;BME280;18726;44.732;10.550;2022-09-20T11:26:30;101162.00;;;24.47;67.87
32237;BME280;18726;44.732;10.550;2022-09-20T11:29:44;101167.50;;;25.19;63.21
32237;BME280;18726;44.732;10.550;2022-09-20T11:36:05;101155.97;;;24.69;62.17
32237;BME280;18726;44.732;10.550;2022-09-20T11:42:29;101147.19;;;25.06;58.36
32237;BME280;18726;44.732;10.550;2022-09-20T11:45:37;101140.63;;;25.13;55.48
32237;BME280;18726;44.732;10.550;2022-09-20T11:52:51;101132.34;;;24.25;62.17
32237;BME280;18726;44.732;10.550;2022-09-20T11:56:05;101130.00;;;24.59;61.34
32237;BME280;18726;44.732;10.550;2022-09-20T11:59:32;101127.59;;;24.25;61.25
32237;BME280;18726;44.732;10.550;2022-09-20T12:02:56;101125.19;;;24.96;64.35
32237;BME280;18726;44.732;10.550;2022-09-20T12:06:05;101124.81;;;25.26;59.86
32237;BME280;18726;44.732;10.550;2022-09-20T12:09:26;101109.28;;;24.96;60.53
32237;BME280;18726;44.732;10.550;2022-09-20T12:12:42;101107.47;;;25.06;60.64
32237;BME280;18726;44.732;10.550;2022-09-20T12:15:57;101097.91;;;25.07;61.80
32237;BME280;18726;44.732;10.550;2022-09-20T12:22:27;101104.25;;;25.52;56.88
32237;BME280;18726;44.732;10.550;2022-09-20T12:25:37;101089.78;;;24.11;61.12
32237;BME280;18726;44.732;10.550;2022-09-20T12:28:43;101096.81;;;24.16;64.40
32237;BME280;18726;44.732;10.550;2022-09-20T12:31:49;101090.06;;;24.53;61.43
32237;BME280;18726;44.732;10.550;2022-09-20T12:34:53;101084.00;;;24.22;63.35
32237;BME280;18726;44.732;10.550;2022-09-20T12:41:24;101088.06;;;24.86;62.12
32237;BME280;18726;44.732;10.550;2022-09-20T12:47:50;101087.13;;;24.24;58.20
32237;BME280;18726;44.732;10.550;2022-09-20T12:51:24;101072.59;;;24.16;58.08
32237;BME280;18726;44.732;10.550;2022-09-20T12:54:51;101078.00;;;24.23;58.36
32237;BME280;18726;44.732;10.550;2022-09-20T13:07:52;101075.47;;;24.49;56.78
32237;BME280;18726;44.732;10.550;2022-09-20T13:14:19;101065.50;;;24.68;57.13
32237;BME280;18726;44.732;10.550;2022-09-20T13:17:26;101065.94;;;24.82;54.01
32237;BME280;18726;44.732;10.550;2022-09-20T13:20:33;101055.59;;;24.50;53.63
32237;BME280;18726;44.732;10.550;2022-09-20T13:23:45;101055.41;;;24.57;51.94
32237;BME280;18726;44.732;10.550;2022-09-20T13:26:52;101044.94;;;24.49;57.82
32237;BME280;18726;44.732;10.550;2022-09-20T13:33:20;101051.94;;;24.70;57.95
32237;BME280;18726;44.732;10.550;2022-09-20T13:36:27;101053.06;;;24.40;55.57
32237;BME280;18726;44.732;10.550;2022-09-20T13:39:34;101040.66;;;24.08;53.31
32237;BME280;18726;44.732;10.550;2022-09-20T13:42:39;101044.44;;;23.98;54.46
32237;BME280;18726;44.732;10.550;2022-09-20T13:45:45;101038.06;;;23.81;52.45
32237;BME280;18726;44.732;10.550;2022-09-20T13:49:15;101031.34;;;23.99;53.45
32237;BME280;18726;44.732;10.550;2022-09-20T13:52:27;101033.69;;;24.00;53.56
32237;BME280;18726;44.732;10.550;2022-09-20T13:55:36;101012.81;;;24.12;51.58
32237;BME280;18726;44.732;10.550;2022-09-20T13:58:41;101016.59;;;24.02;53.74
32237;BME280;18726;44.732;10.550;2022-09-20T14:01:54;101022.78;;;24.09;51.89
32237;BME280;18726;44.732;10.550;2022-09-20T14:05:00;101014.94;;;23.88;56.12
32237;BME280;18726;44.732;10.550;2022-09-20T14:08:36;101023.28;;;23.88;54.70
32237;BME280;18726;44.732;10.550;2022-09-20T14:11:38;101010.47;;;23.74;52.78
32237;BME280;18726;44.732;10.550;2022-09-20T14:14:43;101006.97;;;23.90;52.52
32237;BME280;18726;44.732;10.550;2022-09-20T14:17:49;101005.69;;;23.75;53.18
32237;BME280;18726;44.732;10.550;2022-09-20T14:20:54;100999.75;;;23.56;54.02
32237;BME280;18726;44.732;10.550;2022-09-20T14:23:59;101000.09;;;23.59;52.15
32237;BME280;18726;44.732;10.550;2022-09-20T14:30:30;100988.53;;;23.64;50.23
32237;BME280;18726;44.732;10.550;2022-09-20T14:33:39;100987.44;;;23.58;53.12
32237;BME280;18726;44.732;10.550;2022-09-20T14:36:47;100989.50;;;23.53;50.57
32237;BME280;18726;44.732;10.550;2022-09-20T14:40:00;100986.78;;;23.70;52.19
32237;BME280;18726;44.732;10.550;2022-09-20T14:43:05;100984.00;;;23.70;51.88
32237;BME280;18726;44.732;10.550;2022-09-20T14:46:15;100982.28;;;23.76;50.87
32237;BME280;18726;44.732;10.550;2022-09-20T14:49:30;100979.84;;;23.62;52.83
32237;BME280;18726;44.732;10.550;2022-09-20T14:52:36;100978.81;;;23.72;52.95
32237;BME280;18726;44.732;10.550;2022-09-20T15:02:14;100980.22;;;23.40;54.72
32237;BME280;18726;44.732;10.550;2022-09-20T15:05:27;100972.16;;;23.30;52.35
32237;BME280;18726;44.732;10.550;2022-09-20T15:08:35;100974.00;;;23.36;52.23
32237;BME280;18726;44.732;10.550;2022-09-20T15:11:40;100976.00;;;23.55;51.81
32237;BME280;18726;44.732;10.550;2022-09-20T15:14:44;100972.88;;;23.53;52.33
32237;BME280;18726;44.732;10.550;2022-09-20T15:17:48;100967.19;;;23.61;53.00
32237;BME280;18726;44.732;10.550;2022-09-20T15:20:53;100975.41;;;23.44;55.44
32237;BME280;18726;44.732;10.550;2022-09-20T15:23:57;100978.81;;;23.52;55.18
32237;BME280;18726;44.732;10.550;2022-09-20T15:27:01;100972.13;;;23.49;55.96
32237;BME280;18726;44.732;10.550;2022-09-20T15:30:07;100965.03;;;23.48;53.96
32237;BME280;18726;44.732;10.550;2022-09-20T15:33:12;100973.41;;;23.45;53.20
32237;BME280;18726;44.732;10.550;2022-09-20T15:36:15;100976.13;;;23.48;52.11
32237;BME280;18726;44.732;10.550;2022-09-20T15:39:19;100962.69;;;23.47;53.28
32237;BME280;18726;44.732;10.550;2022-09-20T15:42:24;100966.59;;;23.49;55.71
32237;BME280;18726;44.732;10.550;2022-09-20T15:45:27;100967.28;;;23.14;54.57
32237;BME280;18726;44.732;10.550;2022-09-20T15:48:31;100972.28;;;23.03;55.59
32237;BME280;18726;44.732;10.550;2022-09-20T15:51:36;100963.00;;;22.89;58.09
32237;BME280;18726;44.732;10.550;2022-09-20T15:54:41;100969.34;;;22.90;55.36
32237;BME280;18726;44.732;10.550;2022-09-20T15:57:45;100969.28;;;22.94;55.70
32237;BME280;18726;44.732;10.550;2022-09-20T16:00:50;100962.16;;;22.93;57.26
32237;BME280;18726;44.732;10.550;2022-09-20T16:03:55;100957.09;;;22.87;57.73
32237;BME280;18726;44.732;10.550;2022-09-20T16:06:58;100968.66;;;22.82;57.30
32237;BME280;18726;44.732;10.550;2022-09-20T16:10:02;100970.16;;;22.87;56.61
32237;BME280;18726;44.732;10.550;2022-09-20T16:13:06;100958.03;;;22.81;56.99
32237;BME280;18726;44.732;10.550;2022-09-20T16:16:10;100962.44;;;22.78;57.38
32237;BME280;18726;44.732;10.550;2022-09-20T16:19:15;100955.31;;;22.77;57.68
32237;BME280;18726;44.732;10.550;2022-09-20T16:22:23;100963.72;;;22.70;56.62
32237;BME280;18726;44.732;10.550;2022-09-20T16:25:27;100960.59;;;22.68;56.90
32237;BME280;18726;44.732;10.550;2022-09-20T16:28:31;100961.91;;;22.60;56.47
32237;BME280;18726;44.732;10.550;2022-09-20T16:31:38;100959.63;;;22.55;57.18
32237;BME280;18726;44.732;10.550;2022-09-20T16:34:45;100955.00;;;22.48;58.03
32237;BME280;18726;44.732;10.550;2022-09-20T16:37:48;100955.06;;;22.45;56.93
32237;BME280;18726;44.732;10.550;2022-09-20T16:40:52;100957.47;;;22.43;57.98
32237;BME280;18726;44.732;10.550;2022-09-20T16:43:58;100959.56;;;22.35;58.20
32237;BME280;18726;44.732;10.550;2022-09-20T16:47:06;100960.28;;;22.16;58.91
32237;BME280;18726;44.732;10.550;2022-09-20T16:50:10;100959.53;;;22.12;60.27
32237;BME280;18726;44.732;10.550;2022-09-20T16:53:15;100954.09;;;22.05;61.25
32237;BME280;18726;44.732;10.550;2022-09-20T16:56:21;100964.47;;;21.97;61.96
32237;BME280;18726;44.732;10.550;2022-09-20T16:59:25;100959.88;;;21.87;62.79
32237;BME280;18726;44.732;10.550;2022-09-20T17:02:28;100962.38;;;21.78;63.99
32237;BME280;18726;44.732;10.550;2022-09-20T17:05:32;100969.97;;;21.70;64.50
32237;BME280;18726;44.732;10.550;2022-09-20T17:08:37;100969.31;;;21.63;65.63
32237;BME280;18726;44.732;10.550;2022-09-20T17:11:45;100985.69;;;21.46;66.78
32237;BME280;18726;44.732;10.550;2022-09-20T17:14:50;100980.38;;;21.29;68.26
32237;BME280;18726;44.732;10.550;2022-09-20T17:17:53;100983.63;;;21.16;69.04
32237;BME280;18726;44.732;10.550;2022-09-20T17:21:02;100988.44;;;21.09;68.68
32237;BME280;18726;44.732;10.550;2022-09-20T17:24:06;100990.47;;;21.05;68.62
32237;BME280;18726;44.732;10.550;2022-09-20T17:27:10;100992.50;;;21.01;68.54
32237;BME280;18726;44.732;10.550;2022-09-20T17:30:13;100999.69;;;20.87;71.82
32237;BME280;18726;44.732;10.550;2022-09-20T17:33:17;100996.66;;;20.78;71.69
32237;BME280;18726;44.732;10.550;2022-09-20T17:36:21;101003.03;;;20.68;73.83
32237;BME280;18726;44.732;10.550;2022-09-20T17:39:25;101007.44;;;20.62;75.32
32237;BME280;18726;44.732;10.550;2022-09-20T17:42:29;101014.56;;;20.56;78.21
32237;BME280;18726;44.732;10.550;2022-09-20T17:45:33;101010.31;;;20.48;77.74
32237;BME280;18726;44.732;10.550;2022-09-20T17:48:37;101015.06;;;20.37;77.13
32237;BME280;18726;44.732;10.550;2022-09-20T17:51:42;101011.16;;;20.31;74.99
32237;BME280;18726;44.732;10.550;2022-09-20T17:54:47;101012.03;;;20.20;73.96
32237;BME280;18726;44.732;10.550;2022-09-20T17:57:51;101023.50;;;20.15;74.31
32237;BME280;18726;44.732;10.550;2022-09-20T18:01:02;101022.34;;;20.09;75.00
32237;BME280;18726;44.732;10.550;2022-09-20T18:04:06;101025.94;;;20.03;74.25
32237;BME280;18726;44.732;10.550;2022-09-20T18:07:11;101020.44;;;19.96;71.29
32237;BME280;18726;44.732;10.550;2022-09-20T18:10:15;101026.00;;;19.88;75.29
32237;BME280;18726;44.732;10.550;2022-09-20T18:13:18;101024.47;;;19.84;76.05
32237;BME280;18726;44.732;10.550;2022-09-20T18:16:22;101030.78;;;19.77;75.17
32237;BME280;18726;44.732;10.550;2022-09-20T18:19:26;101031.19;;;19.76;76.58
32237;BME280;18726;44.732;10.550;2022-09-20T18:22:34;101039.84;;;19.74;75.22
32237;BME280;18726;44.732;10.550;2022-09-20T18:25:38;101043.00;;;19.73;74.90
32237;BME280;18726;44.732;10.550;2022-09-20T18:29:13;101040.66;;;19.64;72.07
32237;BME280;18726;44.732;10.550;2022-09-20T18:32:19;101047.00;;;19.58;73.03
32237;BME280;18726;44.732;10.550;2022-09-20T18:35:22;101049.38;;;19.55;77.72
32237;BME280;18726;44.732;10.550;2022-09-20T18:38:27;101047.81;;;19.51;79.17
32237;BME280;18726;44.732;10.550;2022-09-20T18:41:33;101047.41;;;19.45;80.13
32237;BME280;18726;44.732;10.550;2022-09-20T18:44:38;101051.34;;;19.37;83.59
32237;BME280;18726;44.732;10.550;2022-09-20T18:47:42;101062.78;;;19.29;82.70
32237;BME280;18726;44.732;10.550;2022-09-20T18:51:00;101061.22;;;19.17;86.20
32237;BME280;18726;44.732;10.550;2022-09-20T18:54:04;101065.19;;;19.02;88.17
32237;BME280;18726;44.732;10.550;2022-09-20T18:57:09;101066.75;;;18.88;87.14
32237;BME280;18726;44.732;10.550;2022-09-20T19:00:13;101071.47;;;18.70;97.79
32237;BME280;18726;44.732;10.550;2022-09-20T19:03:26;101076.47;;;18.18;100.00
32237;BME280;18726;44.732;10.550;2022-09-20T19:10:45;101095.59;;;17.86;100.00
32237;BME280;18726;44.732;10.550;2022-09-20T19:13:58;101099.91;;;17.95;100.00
32237;BME280;18726;44.732;10.550;2022-09-20T19:17:07;101098.03;;;18.09;100.00
32237;BME280;18726;44.732;10.550;2022-09-20T19:20:37;101100.78;;;18.13;100.00
32237;BME280;18726;44.732;10.550;2022-09-20T19:26:55;101108.44;;;17.72;100.00
32237;BME280;18726;44.732;10.550;2022-09-20T19:29:59;101110.28;;;17.53;100.00
32237;BME280;18726;44.732;10.550;2022-09-20T19:33:03;101117.25;;;17.40;100.00
32237;BME280;18726;44.732;10.550;2022-09-20T19:36:07;101118.78;;;17.38;100.00
32237;BME280;18726;44.732;10.550;2022-09-20T19:39:18;101119.19;;;17.36;100.00
32237;BME280;18726;44.732;10.550;2022-09-20T19:42:52;101122.31;;;17.31;100.00
32237;BME280;18726;44.732;10.550;2022-09-20T19:46:21;101121.50;;;17.31;100.00
32237;BME280;18726;44.732;10.550;2022-09-20T19:52:53;101124.25;;;17.31;100.00
32237;BME280;18726;44.732;10.550;2022-09-20T19:56:25;101130.16;;;17.36;100.00
32237;BME280;18726;44.732;10.550;2022-09-20T19:59:30;101132.66;;;17.52;100.00
32237;BME280;18726;44.732;10.550;2022-09-20T20:02:34;101140.19;;;17.66;100.00
32237;BME280;18726;44.732;10.550;2022-09-20T20:17:04;101146.25;;;17.38;96.21
32237;BME280;18726;44.732;10.550;2022-09-20T20:26:51;101149.41;;;17.40;100.00
32237;BME280;18726;44.732;10.550;2022-09-20T20:29:54;101154.94;;;17.43;100.00
32237;BME280;18726;44.732;10.550;2022-09-20T20:32:58;101163.25;;;17.50;100.00
32237;BME280;18726;44.732;10.550;2022-09-20T20:36:03;101169.13;;;17.52;100.00
32237;BME280;18726;44.732;10.550;2022-09-20T20:39:11;101164.75;;;17.44;100.00
32237;BME280;18726;44.732;10.550;2022-09-20T20:42:15;101175.28;;;17.35;100.00
32237;BME280;18726;44.732;10.550;2022-09-20T20:45:18;101164.94;;;17.18;100.00
32237;BME280;18726;44.732;10.550;2022-09-20T20:48:23;101176.25;;;17.13;100.00
32237;BME280;18726;44.732;10.550;2022-09-20T20:51:27;101179.00;;;17.13;100.00
32237;BME280;18726;44.732;10.550;2022-09-20T20:54:31;101177.34;;;17.05;95.07
32237;BME280;18726;44.732;10.550;2022-09-20T20:57:35;101185.88;;;16.93;99.46
32237;BME280;18726;44.732;10.550;2022-09-20T21:00:40;101184.94;;;16.78;100.00
32237;BME280;18726;44.732;10.550;2022-09-20T21:03:48;101189.47;;;16.63;100.00
32237;BME280;18726;44.732;10.550;2022-09-20T21:06:52;101191.28;;;16.52;100.00
32237;BME280;18726;44.732;10.550;2022-09-20T21:09:56;101196.28;;;16.43;100.00